Calumet — WDE3568 — position and weather

sailwx.info

Track history (hours):
 
Tides and Currents Weather Stations Pressure Air Temp Water Temp Dewpoint Dewpoint Depression Visibility Wind Speed Wind Dir Waves Ship Positions

Calumet

Owner: Grand River Navigation Company, Traverse City, MI. More information available from US FCC via Universal Licensing System and Coast Guard Vessel Documentation Center.

Last reported at 2017-May-26 22:15 UTC. Time now 2017-May-27 04:19 UTC.
Position N 45°58' W 084°15'.

Length 192 m; draft 25 m.

Type: Cargo ship. MMSI: 367132630.

Date/timePositionNaut miles runAvg speedWind from/ knotsBaromVisibWave heightAir tempDewpointWater temp
2017-May-26 22:15N 45°58' W 084°15'13 9.2
2017-May-26 20:49N 45°52' W 084°31'512.2
2017-May-26 20:26N 45°50' W 084°38'512.6
2017-May-26 20:00N 45°49' W 084°45'713.2
2017-May-26 19:31N 45°49' W 084°55'713.1
2017-May-26 19:00N 45°50' W 085°04'5 9.7
2017-May-26 18:30N 45°46' W 085°09'612.9
2017-May-26 18:00N 45°41' W 085°14'713.0
2017-May-26 17:30N 45°36' W 085°20'713.1
2017-May-26 17:01N 45°30' W 085°25'712.9
2017-May-26 16:30N 45°25' W 085°31'713.0
2017-May-26 15:58N 45°20' W 085°37'612.9
2017-May-26 15:30N 45°15' W 085°42'5 0.1
2017-May-25 05:40N 45°11' W 085°47'213.0
2017-May-25 05:30N 45°13' W 085°45'713.0
2017-May-25 05:00N 45°18' W 085°39'713.0
2017-May-25 04:31N 45°23' W 085°34'612.9
2017-May-25 04:00N 45°28' W 085°29'612.9
2017-May-25 03:30N 45°34' W 085°23'612.9
2017-May-25 03:00N 45°39' W 085°18'612.7
2017-May-25 02:30N 45°44' W 085°13'510.7
2017-May-25 02:00N 45°49' W 085°08'711.3
2017-May-25 01:21N 45°50' W 084°58'412.8
2017-May-25 01:00N 45°49' W 084°52'712.8
2017-May-25 00:29N 45°49' W 084°42'612.7
2017-May-25 00:00N 45°45' W 084°35'612.7
2017-May-24 23:29N 45°42' W 084°27'  
2017-May-21 02:00N 43°48' W 082°24'153 8.7 110 / 3
2017-May-20 08:28N 45°59' W 084°17'0 0.0
2017-May-20 07:56N 45°59' W 084°17'0 0.0
2017-May-20 07:28N 45°59' W 084°17'0 0.0
2017-May-20 07:00N 45°59' W 084°17'0 0.0
2017-May-20 06:29N 45°59' W 084°17'0 0.0
2017-May-20 06:00N 45°59' W 084°17'0 0.0
2017-May-20 05:30N 45°59' W 084°17'0 0.0
2017-May-20 05:00N 45°59' W 084°17'0 0.0
2017-May-20 04:30N 45°59' W 084°17'0 0.0
2017-May-20 04:00N 45°59' W 084°17'0 0.0
2017-May-20 03:29N 45°59' W 084°17'2 3.1
2017-May-20 02:46N 45°58' W 084°14'1811.6
2017-May-20 01:14N 45°50' W 084°37'312.5
2017-May-20 01:00N 45°49' W 084°41'612.0
2017-May-20 00:30N 45°49' W 084°50'612.6
2017-May-20 00:00N 45°49' W 084°59'612.5
2017-May-19 23:30N 45°49' W 085°08'510.6
2017-May-19 23:00N 45°44' W 085°10'613.0
2017-May-19 22:30N 45°39' W 085°16'612.9
2017-May-19 22:00N 45°34' W 085°22'612.9
2017-May-19 21:30N 45°29' W 085°27'612.7
2017-May-19 21:00N 45°24' W 085°33'912.7
2017-May-19 20:16N 45°16' W 085°40'312.7
2017-May-19 20:00N 45°13' W 085°43'612.8
2017-May-19 19:31N 45°08' W 085°48'30 1.3
2017-May-18 21:02N 45°36' W 086°04'012.4
2017-May-18 20:59N 45°36' W 086°04'2012.5
2017-May-18 19:22N 45°55' W 085°53'2 0.1
2017-May-18 01:26N 45°56' W 085°52'0 0.1
2017-May-18 00:48N 45°56' W 085°52'0 0.1
2017-May-18 00:29N 45°56' W 085°52'0 0.2
2017-May-18 00:00N 45°56' W 085°52'0 0.0
2017-May-17 23:17N 45°56' W 085°52'  
Track history (hours):
 
Tides and Currents Weather Stations Pressure Air Temp Water Temp Dewpoint Dewpoint Depression Visibility Wind Speed Wind Dir Waves Ship Positions

Calumet

Owner: Grand River Navigation Company, Traverse City, MI. More information available from US FCC via Universal Licensing System and Coast Guard Vessel Documentation Center.

Last reported at 2017-May-26 22:15 UTC. Time now 2017-May-27 04:19 UTC.
Position N 45°58' W 084°15'.

Length 192 m; draft 25 m.

Type: Cargo ship. MMSI: 367132630.

Date/timePositionNaut miles runAvg speedWind from/ knotsBaromVisibWave heightAir tempDewpointWater temp
2017-May-26 22:15N 45°58' W 084°15'13 9.2
2017-May-26 20:49N 45°52' W 084°31'512.2
2017-May-26 20:26N 45°50' W 084°38'512.6
2017-May-26 20:00N 45°49' W 084°45'713.2
2017-May-26 19:31N 45°49' W 084°55'713.1
2017-May-26 19:00N 45°50' W 085°04'5 9.7
2017-May-26 18:30N 45°46' W 085°09'612.9
2017-May-26 18:00N 45°41' W 085°14'713.0
2017-May-26 17:30N 45°36' W 085°20'713.1
2017-May-26 17:01N 45°30' W 085°25'712.9
2017-May-26 16:30N 45°25' W 085°31'713.0
2017-May-26 15:58N 45°20' W 085°37'612.9
2017-May-26 15:30N 45°15' W 085°42'5 0.1
2017-May-25 05:40N 45°11' W 085°47'213.0
2017-May-25 05:30N 45°13' W 085°45'713.0
2017-May-25 05:00N 45°18' W 085°39'713.0
2017-May-25 04:31N 45°23' W 085°34'612.9
2017-May-25 04:00N 45°28' W 085°29'612.9
2017-May-25 03:30N 45°34' W 085°23'612.9
2017-May-25 03:00N 45°39' W 085°18'612.7
2017-May-25 02:30N 45°44' W 085°13'510.7
2017-May-25 02:00N 45°49' W 085°08'711.3
2017-May-25 01:21N 45°50' W 084°58'412.8
2017-May-25 01:00N 45°49' W 084°52'712.8
2017-May-25 00:29N 45°49' W 084°42'612.7
2017-May-25 00:00N 45°45' W 084°35'612.7
2017-May-24 23:29N 45°42' W 084°27'  
2017-May-21 02:00N 43°48' W 082°24'153 8.7 110 / 3
2017-May-20 08:28N 45°59' W 084°17'0 0.0
2017-May-20 07:56N 45°59' W 084°17'0 0.0
2017-May-20 07:28N 45°59' W 084°17'0 0.0
2017-May-20 07:00N 45°59' W 084°17'0 0.0
2017-May-20 06:29N 45°59' W 084°17'0 0.0
2017-May-20 06:00N 45°59' W 084°17'0 0.0
2017-May-20 05:30N 45°59' W 084°17'0 0.0
2017-May-20 05:00N 45°59' W 084°17'0 0.0
2017-May-20 04:30N 45°59' W 084°17'0 0.0
2017-May-20 04:00N 45°59' W 084°17'0 0.0
2017-May-20 03:29N 45°59' W 084°17'2 3.1
2017-May-20 02:46N 45°58' W 084°14'1811.6
2017-May-20 01:14N 45°50' W 084°37'312.5
2017-May-20 01:00N 45°49' W 084°41'612.0
2017-May-20 00:30N 45°49' W 084°50'612.6
2017-May-20 00:00N 45°49' W 084°59'612.5
2017-May-19 23:30N 45°49' W 085°08'510.6
2017-May-19 23:00N 45°44' W 085°10'613.0
2017-May-19 22:30N 45°39' W 085°16'612.9
2017-May-19 22:00N 45°34' W 085°22'612.9
2017-May-19 21:30N 45°29' W 085°27'612.7
2017-May-19 21:00N 45°24' W 085°33'912.7
2017-May-19 20:16N 45°16' W 085°40'312.7
2017-May-19 20:00N 45°13' W 085°43'612.8
2017-May-19 19:31N 45°08' W 085°48'30 1.3
2017-May-18 21:02N 45°36' W 086°04'012.4
2017-May-18 20:59N 45°36' W 086°04'2012.5
2017-May-18 19:22N 45°55' W 085°53'2 0.1
2017-May-18 01:26N 45°56' W 085°52'0 0.1
2017-May-18 00:48N 45°56' W 085°52'0 0.1
2017-May-18 00:29N 45°56' W 085°52'0 0.2
2017-May-18 00:00N 45°56' W 085°52'0 0.0
2017-May-17 23:17N 45°56' W 085°52'  

Dump ship's entire track history